Aviation Digital Data Service (ADDS)

Output produced by METARs form (0941 UTC 26 May 2015)
found at http://aviationweather.gov/adds/metars/
 
KFKL 260528Z 2606/2706 22008KT P6SM BKN060 
     FM261000 21006KT P6SM VCSH BKN030 
     FM261700 19012KT P6SM VCTS BKN035CB 
     FM270200 17010KT P6SM VCSH BKN080 AMD LTD TO CLD VIS AND WIND